createdAt,value
2019-06-10T00:00:16.787Z,101220.65
2019-06-10T00:02:50.773Z,101225.25
2019-06-10T00:05:22.489Z,101230.19
2019-06-10T00:07:54.244Z,101226.94
2019-06-10T00:10:26.045Z,101226.34
2019-06-10T00:12:57.789Z,101228.40
2019-06-10T00:15:31.385Z,101223.58
2019-06-10T00:18:29.485Z,101226.48
2019-06-10T00:20:36.750Z,101224.43
2019-06-10T00:23:08.512Z,101227.92
2019-06-10T00:25:41.322Z,101219.34
2019-06-10T00:28:13.623Z,101225.86
2019-06-10T00:30:45.554Z,101229.23
2019-06-10T00:33:17.289Z,101240.11
2019-06-10T00:35:51.332Z,101241.66
2019-06-10T00:38:22.592Z,101243.59
2019-06-10T00:40:54.353Z,101236.23
2019-06-10T00:43:26.199Z,101223.69
2019-06-10T00:45:58.003Z,101229.59
2019-06-10T00:48:32.330Z,101239.27
2019-06-10T00:51:04.511Z,101236.48
2019-06-10T00:53:37.037Z,101232.02
2019-06-10T00:56:12.825Z,101229.35
2019-06-10T00:58:43.379Z,101223.94
2019-06-10T01:01:15.174Z,101218.98
2019-06-10T01:03:47.543Z,101220.81
2019-06-10T01:06:21.368Z,101217.06
2019-06-10T01:08:52.796Z,101208.95
2019-06-10T01:11:27.152Z,101207.53
2019-06-10T01:13:58.058Z,101206.67
2019-06-10T01:16:31.846Z,101202.21
2019-06-10T01:19:03.801Z,101198.47
2019-06-10T01:21:35.936Z,101202.09
2019-06-10T01:24:09.533Z,101200.85
2019-06-10T01:26:41.339Z,101204.50
2019-06-10T01:29:14.346Z,101195.44
2019-06-10T01:31:46.568Z,101190.86
2019-06-10T01:34:18.533Z,101193.03
2019-06-10T01:36:50.934Z,101193.00
2019-06-10T01:39:22.844Z,101193.23
2019-06-10T01:41:54.641Z,101191.91
2019-06-10T01:44:26.380Z,101185.27
2019-06-10T01:46:58.135Z,101183.48
2019-06-10T01:49:30.776Z,101181.18
2019-06-10T01:52:02.713Z,101178.30
2019-06-10T01:54:34.744Z,101179.97
2019-06-10T01:57:07.671Z,101175.16
2019-06-10T01:59:41.333Z,101166.83
2019-06-10T02:02:23.955Z,101173.95
2019-06-10T02:04:55.251Z,101168.87
2019-06-10T02:07:27.103Z,101178.41
2019-06-10T02:10:00.942Z,101174.80
2019-06-10T02:12:32.444Z,101171.91
2019-06-10T02:15:04.291Z,101172.87
2019-06-10T02:17:36.146Z,101173.62
2019-06-10T02:20:08.217Z,101167.20
2019-06-10T02:22:41.113Z,101171.17
2019-06-10T02:25:13.994Z,101175.91
2019-06-10T02:27:46.633Z,101165.91
2019-06-10T02:30:38.649Z,101161.81
2019-06-10T02:32:52.779Z,101152.37
2019-06-10T02:35:37.580Z,101151.17
2019-06-10T02:37:58.070Z,101149.02
2019-06-10T02:40:33.164Z,101153.70
2019-06-10T02:43:04.220Z,101142.36
2019-06-10T02:45:37.609Z,101142.48
2019-06-10T02:48:09.418Z,101147.15
2019-06-10T02:51:07.473Z,101139.44
2019-06-10T02:53:43.364Z,101141.97
2019-06-10T02:56:17.169Z,101142.19
2019-06-10T02:58:48.192Z,101146.42
2019-06-10T03:01:23.270Z,101145.69
2019-06-10T03:03:54.219Z,101146.03
2019-06-10T03:06:35.120Z,101142.64
2019-06-10T03:09:03.447Z,101137.42
2019-06-10T03:11:37.296Z,101142.48
2019-06-10T03:14:08.928Z,101143.54
2019-06-10T03:16:45.683Z,101146.38
2019-06-10T03:19:29.882Z,101137.53
2019-06-10T03:21:52.156Z,101142.93
2019-06-10T03:24:25.305Z,101134.20
2019-06-10T03:26:58.407Z,101138.25
2019-06-10T03:29:30.170Z,101134.59
2019-06-10T03:32:04.985Z,101127.84
2019-06-10T03:34:41.510Z,101124.17
2019-06-10T03:37:08.866Z,101127.78
2019-06-10T03:39:42.688Z,101129.89
2019-06-10T03:42:14.125Z,101126.39
2019-06-10T03:44:45.869Z,101128.30
2019-06-10T03:47:17.642Z,101134.12
2019-06-10T03:49:52.782Z,101125.75
2019-06-10T03:52:25.289Z,101127.65
2019-06-10T03:54:56.409Z,101126.66
2019-06-10T03:57:28.718Z,101125.06
2019-06-10T04:00:06.440Z,101126.83
2019-06-10T04:02:35.405Z,101121.51
2019-06-10T04:05:08.474Z,101118.41
2019-06-10T04:07:42.769Z,101115.69
2019-06-10T04:10:13.835Z,101115.55
2019-06-10T04:12:45.622Z,101117.69
2019-06-10T04:15:17.689Z,101118.49
2019-06-10T04:17:53.020Z,101116.53
2019-06-10T04:20:27.475Z,101117.16
2019-06-10T04:22:57.792Z,101116.83
2019-06-10T04:25:32.251Z,101112.42
2019-06-10T04:28:03.355Z,101116.52
2019-06-10T04:30:35.128Z,101109.78
2019-06-10T04:33:06.872Z,101109.80
2019-06-10T04:35:38.686Z,101109.88
2019-06-10T04:38:10.431Z,101110.63
2019-06-10T04:40:43.115Z,101106.77
2019-06-10T04:43:15.263Z,101100.33
2019-06-10T04:45:46.568Z,101099.19
2019-06-10T04:48:18.553Z,101098.76
2019-06-10T04:50:53.121Z,101099.81
2019-06-10T04:53:26.358Z,101095.84
2019-06-10T04:55:57.461Z,101102.73
2019-06-10T04:58:30.364Z,101096.06
2019-06-10T05:01:03.235Z,101099.05
2019-06-10T05:03:36.008Z,101097.95
2019-06-10T05:06:07.779Z,101099.94
2019-06-10T05:08:42.329Z,101097.59
2019-06-10T05:11:13.525Z,101103.44
2019-06-10T05:13:45.311Z,101097.69
2019-06-10T05:16:17.066Z,101091.16
2019-06-10T05:18:51.792Z,101087.24
2019-06-10T05:21:25.099Z,101089.59
2019-06-10T05:23:55.852Z,101096.34
2019-06-10T05:26:28.789Z,101086.41
2019-06-10T05:29:03.077Z,101088.52
2019-06-10T05:31:35.203Z,101093.25
2019-06-10T05:34:07.266Z,101096.75
2019-06-10T05:36:39.028Z,101103.97
2019-06-10T05:39:12.138Z,101101.32
2019-06-10T05:41:44.189Z,101106.92
2019-06-10T05:44:16.057Z,101107.28
2019-06-10T05:46:47.846Z,101102.55
2019-06-10T05:49:19.638Z,101107.34
2019-06-10T05:51:52.712Z,101110.57
2019-06-10T05:54:26.364Z,101103.09
2019-06-10T05:56:58.454Z,101101.95
2019-06-10T05:59:31.435Z,101103.94
2019-06-10T06:02:03.745Z,101105.05
2019-06-10T06:04:36.082Z,101101.55
2019-06-10T06:07:08.179Z,101105.00
2019-06-10T06:09:39.992Z,101101.70
2019-06-10T06:12:14.139Z,101099.17
2019-06-10T06:14:45.240Z,101103.72
2019-06-10T06:17:17.002Z,101100.19
2019-06-10T06:19:48.802Z,101095.98
2019-06-10T06:22:22.148Z,101093.63
2019-06-10T06:24:54.218Z,101095.31
2019-06-10T06:27:26.732Z,101080.09
2019-06-10T06:29:58.587Z,101086.12
2019-06-10T06:32:32.809Z,101085.09
2019-06-10T06:35:03.863Z,101083.45
2019-06-10T06:37:37.707Z,101079.77
2019-06-10T06:40:13.076Z,101083.46
2019-06-10T06:42:44.078Z,101078.09
2019-06-10T06:45:16.959Z,101080.78
2019-06-10T06:47:48.737Z,101077.50
2019-06-10T06:50:24.828Z,101080.52
2019-06-10T06:53:20.070Z,101072.13
2019-06-10T06:55:28.611Z,101070.45
2019-06-10T06:58:02.981Z,101063.03
2019-06-10T07:00:53.233Z,101068.19
2019-06-10T07:03:09.873Z,101064.77
2019-06-10T07:05:43.368Z,101063.87
2019-06-10T07:08:17.938Z,101056.50
2019-06-10T07:10:52.242Z,101052.06
2019-06-10T07:13:25.688Z,101045.64
2019-06-10T07:15:57.585Z,101044.00
2019-06-10T07:18:29.373Z,101036.00
2019-06-10T07:21:02.658Z,101042.57
2019-06-10T07:23:38.005Z,101042.19
2019-06-10T07:26:08.602Z,101036.39
2019-06-10T07:28:42.538Z,101032.68
2019-06-10T07:31:23.026Z,101028.06
2019-06-10T07:33:47.455Z,101027.13
2019-06-10T07:36:19.350Z,101021.80
2019-06-10T07:38:53.866Z,101024.22
2019-06-10T07:41:24.612Z,101025.20
2019-06-10T07:43:56.362Z,101014.26
2019-06-10T07:46:28.142Z,101009.22
2019-06-10T07:49:03.090Z,101012.41
2019-06-10T07:51:34.647Z,101013.13
2019-06-10T07:54:08.135Z,101019.00
2019-06-10T07:56:44.306Z,101021.58
2019-06-10T07:59:13.355Z,101006.69
2019-06-10T08:01:51.304Z,101010.77
2019-06-10T08:04:18.678Z,101004.53
2019-06-10T08:06:52.888Z,101000.10
2019-06-10T08:09:25.118Z,101004.66
2019-06-10T08:11:57.180Z,100995.79
2019-06-10T08:14:29.234Z,100991.75
2019-06-10T08:17:03.082Z,100996.13
2019-06-10T08:19:38.742Z,100986.81
2019-06-10T08:22:07.951Z,100985.38
2019-06-10T08:24:42.373Z,100982.94
2019-06-10T08:27:13.413Z,100983.23
2019-06-10T08:29:48.066Z,100981.25
2019-06-10T08:32:19.824Z,100978.95
2019-06-10T08:34:53.099Z,100971.34
2019-06-10T08:37:25.364Z,100967.58
2019-06-10T08:39:57.171Z,100973.70
2019-06-10T08:42:28.899Z,100964.70
2019-06-10T08:45:03.388Z,100958.09
2019-06-10T08:47:34.124Z,100958.20
2019-06-10T08:50:06.679Z,100959.12
2019-06-10T08:53:01.454Z,100952.47
2019-06-10T08:55:12.693Z,100951.31
2019-06-10T08:57:48.799Z,100947.05
2019-06-10T09:00:25.375Z,100949.67
2019-06-10T09:02:54.480Z,100946.84
2019-06-10T09:05:26.250Z,100947.69
2019-06-10T09:07:58.008Z,100941.64
2019-06-10T09:10:29.927Z,100945.09
2019-06-10T09:13:02.807Z,100938.22
2019-06-10T09:15:34.984Z,100938.11
2019-06-10T09:18:06.735Z,100933.18
2019-06-10T09:20:39.353Z,100925.82
2019-06-10T09:23:20.928Z,100923.73
2019-06-10T09:25:50.485Z,100915.06
2019-06-10T09:28:22.912Z,100916.24
2019-06-10T09:30:58.938Z,100913.88
2019-06-10T09:33:27.428Z,100909.73
2019-06-10T09:35:59.240Z,100902.02
2019-06-10T09:38:33.529Z,100894.23
2019-06-10T09:41:06.214Z,100891.14
2019-06-10T09:43:38.527Z,100884.93
2019-06-10T09:46:12.538Z,100880.95
2019-06-10T09:48:49.725Z,100876.83
2019-06-10T09:51:20.052Z,100878.93
2019-06-10T09:54:02.143Z,100874.08
2019-06-10T09:56:25.297Z,100872.73
2019-06-10T09:58:57.097Z,100868.65
2019-06-10T10:01:28.859Z,100856.20
2019-06-10T10:04:00.788Z,100853.13
2019-06-10T10:06:32.859Z,100852.50
2019-06-10T10:09:07.173Z,100847.84
2019-06-10T10:11:39.000Z,100852.28
2019-06-10T10:14:15.782Z,100842.88
2019-06-10T10:16:49.390Z,100848.58
2019-06-10T10:19:18.149Z,100838.86
2019-06-10T10:21:56.044Z,100829.05
2019-06-10T10:24:23.487Z,100822.36
2019-06-10T10:26:57.529Z,100825.22
2019-06-10T10:29:28.746Z,100830.17
2019-06-10T10:32:02.584Z,100825.95
2019-06-10T10:34:34.090Z,100826.41
2019-06-10T10:37:05.911Z,100829.72
2019-06-10T10:39:37.690Z,100824.64
2019-06-10T10:42:09.549Z,100828.64
2019-06-10T10:44:44.364Z,100821.84
2019-06-10T10:47:14.783Z,100831.40
2019-06-10T10:49:47.034Z,100828.58
2019-06-10T10:52:19.120Z,100825.95
2019-06-10T10:54:51.858Z,100824.39
2019-06-10T10:57:24.430Z,100816.49
2019-06-10T10:59:56.351Z,100812.97
2019-06-10T11:02:28.211Z,100819.31
2019-06-10T11:05:00.015Z,100804.80
2019-06-10T11:07:33.948Z,100805.00
2019-06-10T11:10:06.105Z,100800.61
2019-06-10T11:12:39.549Z,100791.03
2019-06-10T11:15:16.214Z,100788.77
2019-06-10T11:17:49.483Z,100789.22
2019-06-10T11:20:22.545Z,100777.88
2019-06-10T11:22:54.424Z,100778.42
2019-06-10T11:25:26.194Z,100768.76
2019-06-10T11:27:58.016Z,100768.89
2019-06-10T11:30:32.265Z,100766.41
2019-06-10T11:33:03.771Z,100772.93
2019-06-10T11:35:36.819Z,100766.78
2019-06-10T11:38:08.680Z,100769.28
2019-06-10T11:40:42.672Z,100765.80
2019-06-10T11:43:14.023Z,100760.23
2019-06-10T11:45:52.107Z,100757.66
2019-06-10T11:48:19.256Z,100750.27
2019-06-10T11:50:54.393Z,100749.28
2019-06-10T11:53:28.627Z,100745.25
2019-06-10T11:55:59.150Z,100735.77
2019-06-10T11:58:33.091Z,100749.72
2019-06-10T12:01:04.488Z,100734.02
2019-06-10T12:03:36.386Z,100729.80
2019-06-10T12:06:08.222Z,100723.00
2019-06-10T12:08:40.099Z,100731.61
2019-06-10T12:11:12.684Z,100713.55
2019-06-10T12:13:44.924Z,100725.59
2019-06-10T12:18:51.675Z,100722.78
2019-06-10T12:21:24.219Z,100716.97
2019-06-10T12:24:00.516Z,100715.42
2019-06-10T12:26:29.707Z,100708.73
2019-06-10T12:29:05.280Z,100712.52
2019-06-10T12:31:35.051Z,100708.66
2019-06-10T12:34:07.322Z,100700.27
2019-06-10T12:36:39.103Z,100704.05
2019-06-10T12:39:15.136Z,100704.92
2019-06-10T12:41:45.200Z,100696.08
2019-06-10T12:44:18.315Z,100698.30
2019-06-10T12:46:53.324Z,100690.36
2019-06-10T12:49:23.626Z,100690.34
2019-06-10T12:51:55.990Z,100684.80
2019-06-10T12:54:29.016Z,100683.41
2019-06-10T12:57:04.308Z,100680.55
2019-06-10T12:59:34.354Z,100676.16
2019-06-10T13:02:15.642Z,100676.72
2019-06-10T13:04:42.957Z,100674.63
2019-06-10T13:07:17.410Z,100673.24
2019-06-10T13:09:49.270Z,100659.78
2019-06-10T13:12:22.956Z,100666.88
2019-06-10T13:14:56.177Z,100663.17
2019-06-10T13:17:28.665Z,100662.25
2019-06-10T13:20:03.857Z,100655.24
2019-06-10T13:22:34.006Z,100652.74
2019-06-10T13:25:07.399Z,100643.23
2019-06-10T13:27:39.180Z,100646.73
2019-06-10T13:30:11.974Z,100649.58
2019-06-10T13:32:43.821Z,100645.90
2019-06-10T13:35:15.988Z,100630.42
2019-06-10T13:37:47.756Z,100627.41
2019-06-10T13:40:22.696Z,100618.41
2019-06-10T13:42:54.559Z,100619.47
2019-06-10T13:45:26.886Z,100622.86
2019-06-10T13:48:01.188Z,100620.83
2019-06-10T13:50:34.258Z,100612.41
2019-06-10T13:53:07.010Z,100617.70
2019-06-10T13:55:40.816Z,100607.61
2019-06-10T13:58:14.658Z,100603.13
2019-06-10T14:00:46.989Z,100606.63
2019-06-10T14:03:19.270Z,100603.97
2019-06-10T14:05:57.602Z,100600.30
2019-06-10T14:08:24.714Z,100599.00
2019-06-10T14:10:56.496Z,100594.16
2019-06-10T14:13:28.378Z,100585.61
2019-06-10T14:16:01.339Z,100586.86
2019-06-10T14:18:33.786Z,100581.30
2019-06-10T14:21:09.001Z,100597.17
2019-06-10T14:23:42.206Z,100584.95
2019-06-10T14:26:16.963Z,100580.67
2019-06-10T14:28:46.710Z,100579.56
2019-06-10T14:31:38.679Z,100570.25
2019-06-10T14:33:53.230Z,100563.00
2019-06-10T14:36:25.314Z,100564.89
2019-06-10T14:38:57.132Z,100553.36
2019-06-10T14:41:28.986Z,100563.87
2019-06-10T14:44:00.757Z,100560.34
2019-06-10T14:46:33.020Z,100549.42
2019-06-10T14:49:05.092Z,100546.83
2019-06-10T14:51:36.917Z,100547.71
2019-06-10T14:54:09.363Z,100546.25
2019-06-10T14:56:50.726Z,100537.92
2019-06-10T14:59:17.860Z,100538.50
2019-06-10T15:01:48.319Z,100535.25
2019-06-10T15:04:22.312Z,100527.91
2019-06-10T15:06:53.963Z,100532.67
2019-06-10T15:09:26.131Z,100532.13
2019-06-10T15:11:57.912Z,100524.14
2019-06-10T15:14:32.233Z,100529.84
2019-06-10T15:17:03.419Z,100528.36
2019-06-10T15:19:35.605Z,100519.02
2019-06-10T15:22:07.582Z,100515.71
2019-06-10T15:24:39.740Z,100518.61
2019-06-10T15:27:19.239Z,100505.89
2019-06-10T15:29:45.007Z,100503.56
2019-06-10T15:32:33.473Z,100502.19
2019-06-10T15:34:52.458Z,100498.19
2019-06-10T15:37:28.637Z,100497.67
2019-06-10T15:39:58.512Z,100495.63
2019-06-10T15:42:30.351Z,100487.36
2019-06-10T15:45:02.602Z,100485.75
2019-06-10T15:47:34.811Z,100489.39
2019-06-10T15:50:07.804Z,100487.34
2019-06-10T15:52:40.320Z,100479.89
2019-06-10T15:55:14.896Z,100482.73
2019-06-10T15:57:46.596Z,100486.67
2019-06-10T16:00:25.513Z,100486.74
2019-06-10T16:02:53.721Z,100483.84
2019-06-10T16:05:25.534Z,100479.16
2019-06-10T16:07:58.404Z,100468.21
2019-06-10T16:10:32.566Z,100464.41
2019-06-10T16:13:04.200Z,100463.63
2019-06-10T16:15:36.027Z,100464.17
2019-06-10T16:18:07.834Z,100459.07
2019-06-10T16:20:39.925Z,100457.31
2019-06-10T16:23:12.555Z,100456.28
2019-06-10T16:25:45.507Z,100455.86
2019-06-10T16:28:18.209Z,100449.86
2019-06-10T16:30:53.649Z,100448.98
2019-06-10T16:33:27.629Z,100449.44
2019-06-10T16:35:58.466Z,100443.95
2019-06-10T16:38:32.634Z,100439.20
2019-06-10T16:41:04.011Z,100440.31
2019-06-10T16:43:35.898Z,100439.78
2019-06-10T16:46:07.813Z,100434.27
2019-06-10T16:48:39.704Z,100436.33
2019-06-10T16:51:13.323Z,100437.37
2019-06-10T16:53:45.096Z,100445.98
2019-06-10T16:56:17.714Z,100442.94
2019-06-10T16:58:49.597Z,100440.88
2019-06-10T17:01:25.028Z,100439.20
2019-06-10T17:03:55.016Z,100437.70
2019-06-10T17:06:26.979Z,100435.59
2019-06-10T17:08:58.843Z,100426.63
2019-06-10T17:11:31.574Z,100432.66
2019-06-10T17:14:03.472Z,100427.91
2019-06-10T17:16:35.339Z,100421.30
2019-06-10T17:19:07.152Z,100410.33
2019-06-10T17:21:39.262Z,100409.21
2019-06-10T17:24:12.798Z,100405.95
2019-06-10T17:26:45.668Z,100397.58
2019-06-10T17:29:17.501Z,100401.45
2019-06-10T17:31:49.330Z,100404.84
2019-06-10T17:34:24.649Z,100398.84
2019-06-10T17:36:54.683Z,100401.71
2019-06-10T17:39:28.089Z,100403.70
2019-06-10T17:42:00.100Z,100403.81
2019-06-10T17:44:33.090Z,100412.94
2019-06-10T17:47:04.898Z,100407.33
2019-06-10T17:49:36.767Z,100418.66
2019-06-10T17:52:08.616Z,100422.58
2019-06-10T17:54:40.861Z,100414.76
2019-06-10T17:57:12.935Z,100421.02
2019-06-10T17:59:44.852Z,100420.64
2019-06-10T18:02:16.647Z,100414.91
2019-06-10T18:04:48.457Z,100417.16
2019-06-10T18:07:22.745Z,100416.76
2019-06-10T18:09:54.130Z,100414.28
2019-06-10T18:12:25.903Z,100410.38
2019-06-10T18:14:57.730Z,100405.95
2019-06-10T18:17:31.186Z,100410.57
2019-06-10T18:20:04.505Z,100413.06
2019-06-10T18:22:37.112Z,100416.11
2019-06-10T18:25:12.317Z,100416.00
2019-06-10T18:27:44.374Z,100410.43
2019-06-10T18:30:18.215Z,100417.15
2019-06-10T18:32:52.397Z,100425.09
2019-06-10T18:35:23.593Z,100429.87
2019-06-10T18:37:56.586Z,100429.29
2019-06-10T18:40:29.463Z,100428.23
2019-06-10T18:43:02.914Z,100429.02
2019-06-10T18:45:37.842Z,100428.98
2019-06-10T18:48:08.398Z,100419.38
2019-06-10T18:50:40.234Z,100419.33
2019-06-10T18:53:12.975Z,100422.16
2019-06-10T18:55:46.088Z,100422.73
2019-06-10T18:58:18.205Z,100428.16
2019-06-10T19:01:00.664Z,100425.16
2019-06-10T19:03:24.636Z,100420.92
2019-06-10T19:05:56.479Z,100432.05
2019-06-10T19:08:29.031Z,100433.20
2019-06-10T19:11:02.411Z,100434.15
2019-06-10T19:13:37.058Z,100434.89
2019-06-10T19:16:08.502Z,100434.01
2019-06-10T19:18:42.967Z,100432.25
2019-06-10T19:21:13.912Z,100433.52
2019-06-10T19:23:45.844Z,100428.94
2019-06-10T19:26:17.676Z,100424.80
2019-06-10T19:28:49.463Z,100432.97
2019-06-10T19:31:21.234Z,100433.20
2019-06-10T19:33:53.069Z,100442.42
2019-06-10T19:36:24.857Z,100446.24
2019-06-10T19:38:56.686Z,100441.55
2019-06-10T19:41:28.466Z,100441.02
2019-06-10T19:44:02.350Z,100438.94
2019-06-10T19:46:34.249Z,100439.53
2019-06-10T19:49:07.276Z,100437.88
2019-06-10T19:51:39.472Z,100427.80
2019-06-10T19:54:12.799Z,100430.91
2019-06-10T19:56:44.837Z,100428.31
2019-06-10T19:59:16.632Z,100425.39
2019-06-10T20:01:48.945Z,100426.22
2019-06-10T20:04:22.628Z,100424.13
2019-06-10T20:06:54.661Z,100420.48
2019-06-10T20:09:26.590Z,100423.90
2019-06-10T20:11:58.346Z,100425.97
2019-06-10T20:14:32.143Z,100434.61
2019-06-10T20:17:03.654Z,100438.16
2019-06-10T20:19:35.728Z,100445.48
2019-06-10T20:22:07.636Z,100443.68
2019-06-10T20:24:41.318Z,100441.70
2019-06-10T20:27:13.495Z,100453.39
2019-06-10T20:29:45.768Z,100454.08
2019-06-10T20:32:18.065Z,100452.44
2019-06-10T20:34:52.713Z,100462.69
2019-06-10T20:37:23.466Z,100464.95
2019-06-10T20:39:55.408Z,100463.03
2019-06-10T20:42:27.647Z,100466.84
2019-06-10T20:44:59.505Z,100461.65
2019-06-10T20:47:33.344Z,100463.52
2019-06-10T20:50:05.194Z,100466.36
2019-06-10T20:52:37.959Z,100460.55
2019-06-10T20:55:12.575Z,100459.05
2019-06-10T20:57:55.895Z,100464.29
2019-06-10T21:00:33.770Z,100457.03
2019-06-10T21:03:06.538Z,100460.87
2019-06-10T21:05:39.581Z,100460.37
2019-06-10T21:08:12.314Z,100456.64
2019-06-10T21:10:47.663Z,100459.25
2019-06-10T21:13:18.419Z,100455.88
2019-06-10T21:15:51.463Z,100454.72
2019-06-10T21:18:23.797Z,100452.69
2019-06-10T21:20:56.270Z,100455.13
2019-06-10T21:23:28.261Z,100455.51
2019-06-10T21:26:03.025Z,100454.81
2019-06-10T21:28:35.374Z,100449.63
2019-06-10T21:31:07.168Z,100447.28
2019-06-10T21:33:39.044Z,100450.09
2019-06-10T21:36:12.412Z,100449.05
2019-06-10T21:38:47.695Z,100456.81
2019-06-10T21:41:17.959Z,100454.17
2019-06-10T21:43:56.457Z,100460.25
2019-06-10T21:46:23.570Z,100460.70
2019-06-10T21:48:55.912Z,100465.55
2019-06-10T21:51:31.443Z,100463.42
2019-06-10T21:54:02.973Z,100468.65
2019-06-10T21:56:34.988Z,100463.34
2019-06-10T21:59:07.182Z,100468.13
2019-06-10T22:01:39.158Z,100464.42
2019-06-10T22:04:13.368Z,100468.31
2019-06-10T22:06:45.373Z,100463.69
2019-06-10T22:09:17.260Z,100473.15
2019-06-10T22:11:52.954Z,100475.75
2019-06-10T22:14:25.479Z,100473.31
2019-06-10T22:16:58.273Z,100470.26
2019-06-10T22:19:32.190Z,100468.68
2019-06-10T22:22:03.696Z,100474.20
2019-06-10T22:24:35.491Z,100471.15
2019-06-10T22:27:07.660Z,100473.08
2019-06-10T22:29:39.649Z,100471.42
2019-06-10T22:32:12.947Z,100468.59
2019-06-10T22:34:45.272Z,100466.95
2019-06-10T22:37:17.254Z,100465.14
2019-06-10T22:39:50.017Z,100455.33
2019-06-10T22:42:22.503Z,100458.47
2019-06-10T22:44:57.406Z,100449.69
2019-06-10T22:47:28.024Z,100449.88
2019-06-10T22:50:07.071Z,100450.39
2019-06-10T22:52:34.713Z,100452.33
2019-06-10T22:55:07.198Z,100454.16
2019-06-10T22:57:39.120Z,100456.75
2019-06-10T23:00:13.090Z,100453.79
2019-06-10T23:02:45.025Z,100456.78
2019-06-10T23:05:17.547Z,100454.97
2019-06-10T23:07:50.798Z,100455.98
2019-06-10T23:10:23.079Z,100453.51
2019-06-10T23:12:56.582Z,100451.31
2019-06-10T23:15:28.655Z,100446.00
2019-06-10T23:18:03.109Z,100453.02
2019-06-10T23:20:33.917Z,100448.53
2019-06-10T23:23:05.700Z,100442.86
2019-06-10T23:25:37.542Z,100433.89
2019-06-10T23:28:09.535Z,100432.21
2019-06-10T23:30:42.682Z,100430.05
2019-06-10T23:33:14.892Z,100429.25
2019-06-10T23:35:47.688Z,100430.06
2019-06-10T23:38:19.631Z,100425.92
2019-06-10T23:40:52.509Z,100424.94
2019-06-10T23:43:24.562Z,100425.46
2019-06-10T23:45:57.182Z,100422.67
2019-06-10T23:48:29.108Z,100424.66
2019-06-10T23:51:03.362Z,100423.83
2019-06-10T23:53:34.338Z,100416.28
2019-06-10T23:56:06.166Z,100422.05
2019-06-10T23:58:37.965Z,100408.36
